Huaral, Peru
Current Conditions -  °F | °C
As of 7:00 PM on Tuesday 21 Oct 2014 (Local Time) from SPIM Reporting Station
Overcast Overcast  
Wind Chill: 64°   Ceiling: 1400
Heat Index: 64°   Visibility: 6mi
Dew Point: 61°   Wind: 14mph
Humidity: 88%   Direction: 160°SSE
Pressure: 29.91"   Gusts: NA
Location:  11.5°S, 77.21°W
Report Text: SPIM 220000Z 16012KT 9999 SCT010 OVC014 18/16 Q1013 NOSIG RMK PP000
Loading
Personal Weather Stations






























Interactive Weather Map
Tropical Storm Tracking
New forecast layout! Learn more

10-Day Weather Forecast

Advertisements
Track Severe Weather on mobile